Time;durP1;ratioP1;P1;durP2;ratioP2;P2;SDS_P1;SDS_P2;PMS_P1;PMS_P2;Temp;Humidity;BMP_temperature;BMP_pressure;BME280_temperature;BME280_humidity;BME280_pressure;Samples;Min_cycle;Max_cycle;Signal;HPM_P1;HPM_P2
2022/11/08 00:01:30;;;;;;;7.03;4.57;;;;;;;;;;5007656;28;20216;-71
2022/11/08 00:03:57;;;;;;;7.83;4.80;;;;;;;;;;5011079;28;20192;-67
2022/11/08 00:14:40;;;;;;;10.80;5.27;;;;;;;;;;5016626;28;20246;-68
2022/11/08 00:17:06;;;;;;;9.50;5.13;;;;;;;;;;5008154;28;20235;-69
2022/11/08 00:19:33;;;;;;;9.37;5.50;;;;;;;;;;5021669;28;20200;-68
2022/11/08 00:22:00;;;;;;;8.30;4.77;;;;;;;;;;5027136;28;20227;-68
2022/11/08 00:24:26;;;;;;;11.67;5.30;;;;;;;;;;5028826;28;20195;-68
2022/11/08 00:26:53;;;;;;;10.70;6.00;;;;;;;;;;5012112;28;20664;-68
2022/11/08 00:29:20;;;;;;;6.80;5.10;;;;;;;;;;5028909;28;20218;-68
2022/11/08 00:31:46;;;;;;;9.10;5.20;;;;;;;;;;5018820;28;20223;-67
2022/11/08 00:34:13;;;;;;;9.63;4.97;;;;;;;;;;5019043;28;20191;-68
2022/11/08 00:36:57;;;;;;;9.67;5.20;;;;;;;;;;5046079;28;20246;-67
2022/11/08 00:39:23;;;;;;;12.07;5.43;;;;;;;;;;5022381;28;20334;-68
2022/11/08 00:42:08;;;;;;;12.80;5.63;;;;;;;;;;5011377;28;20242;-68
2022/11/08 00:44:34;;;;;;;11.03;5.20;;;;;;;;;;5013604;28;20283;-67
2022/11/08 00:47:01;;;;;;;11.10;5.53;;;;;;;;;;5012890;28;20185;-68
2022/11/08 00:49:28;;;;;;;10.87;4.93;;;;;;;;;;5012712;28;20191;-68
2022/11/08 00:51:54;;;;;;;10.47;4.93;;;;;;;;;;5023506;28;20222;-67
2022/11/08 00:54:21;;;;;;;9.73;5.53;;;;;;;;;;5027904;28;20223;-67
2022/11/08 00:56:48;;;;;;;9.17;5.07;;;;;;;;;;5020973;28;20192;-67
2022/11/08 00:59:15;;;;;;;11.30;5.17;;;;;;;;;;5017679;28;20203;-67
2022/11/08 01:01:42;;;;;;;11.63;5.80;;;;;;;;;;5027920;28;20216;-67
2022/11/08 01:04:09;;;;;;;10.77;5.00;;;;;;;;;;5024849;28;20724;-67
2022/11/08 01:06:35;;;;;;;9.63;4.60;;;;;;;;;;5012990;28;20283;-67
2022/11/08 01:09:02;;;;;;;9.43;5.50;;;;;;;;;;5032268;28;20192;-68
2022/11/08 01:11:29;;;;;;;10.07;5.37;;;;;;;;;;5022118;28;20262;-68
2022/11/08 01:13:56;;;;;;;10.20;5.40;;;;;;;;;;5008823;28;20219;-67
2022/11/08 01:16:23;;;;;;;11.37;5.50;;;;;;;;;;5021375;28;20664;-67
2022/11/08 01:18:50;;;;;;;8.30;5.00;;;;;;;;;;5026432;28;20726;-68
2022/11/08 01:21:16;;;;;;;11.00;5.87;;;;;;;;;;5031297;28;20191;-67
2022/11/08 01:23:44;;;;;;;8.80;5.03;;;;;;;;;;5032161;28;20266;-67
2022/11/08 01:26:17;;;;;;;11.57;5.50;;;;;;;;;;5028192;28;20199;-67
2022/11/08 01:28:44;;;;;;;8.77;5.17;;;;;;;;;;5013012;28;20204;-67
2022/11/08 01:31:14;;;;;;;8.20;5.00;;;;;;;;;;5010884;28;20778;-67
2022/11/08 01:33:41;;;;;;;7.93;5.50;;;;;;;;;;5025387;28;20218;-67
2022/11/08 01:36:16;;;;;;;9.20;5.50;;;;;;;;;;5013574;28;20191;-67
2022/11/08 01:38:42;;;;;;;11.97;5.60;;;;;;;;;;5029547;28;20238;-67
2022/11/08 01:41:10;;;;;;;7.33;5.13;;;;;;;;;;5026159;28;20655;-67
2022/11/08 01:43:40;;;;;;;10.20;5.57;;;;;;;;;;5019409;28;20203;-67
2022/11/08 01:46:25;;;;;;;8.13;5.70;;;;;;;;;;5025408;28;20192;-67
2022/11/08 01:48:55;;;;;;;8.33;5.70;;;;;;;;;;5027468;28;20196;-67
2022/11/08 01:51:25;;;;;;;8.13;5.23;;;;;;;;;;5017043;28;20242;-67
2022/11/08 01:53:52;;;;;;;12.07;5.70;;;;;;;;;;5030039;28;20199;-67
2022/11/08 01:56:18;;;;;;;12.03;5.87;;;;;;;;;;5015203;28;20267;-67
2022/11/08 01:58:45;;;;;;;11.97;6.73;;;;;;;;;;5018683;28;20199;-67
2022/11/08 02:01:12;;;;;;;11.93;6.47;;;;;;;;;;5016536;28;20220;-67
2022/11/08 02:03:38;;;;;;;13.33;7.20;;;;;;;;;;5009472;28;20755;-67
2022/11/08 02:06:05;;;;;;;10.13;5.90;;;;;;;;;;5028491;28;20262;-67
2022/11/08 02:08:33;;;;;;;12.57;5.57;;;;;;;;;;5015117;28;20588;-67
2022/11/08 02:11:17;;;;;;;11.70;6.20;;;;;;;;;;5014073;28;20178;-67
2022/11/08 02:13:43;;;;;;;12.87;6.80;;;;;;;;;;5023954;28;20263;-67
2022/11/08 02:16:11;;;;;;;15.17;7.03;;;;;;;;;;5017398;28;20187;-67
2022/11/08 02:18:37;;;;;;;10.57;6.83;;;;;;;;;;5022387;28;20247;-68
2022/11/08 02:21:09;;;;;;;11.57;6.13;;;;;;;;;;5026996;28;20258;-67
2022/11/08 02:23:48;;;;;;;12.73;6.73;;;;;;;;;;5018267;28;20572;-67
2022/11/08 02:26:15;;;;;;;12.37;7.53;;;;;;;;;;5017802;28;20250;-67
2022/11/08 02:28:42;;;;;;;10.43;6.70;;;;;;;;;;5019356;28;20227;-67
2022/11/08 02:31:09;;;;;;;11.77;7.33;;;;;;;;;;5026071;28;20218;-67
2022/11/08 02:33:36;;;;;;;12.07;7.43;;;;;;;;;;5017943;28;20265;-67
2022/11/08 02:36:02;;;;;;;12.23;7.70;;;;;;;;;;5009934;28;20207;-68
2022/11/08 02:38:29;;;;;;;14.80;8.03;;;;;;;;;;5009836;28;20231;-67
2022/11/08 02:40:56;;;;;;;12.03;8.23;;;;;;;;;;5008043;28;20235;-68
2022/11/08 02:43:23;;;;;;;14.07;8.67;;;;;;;;;;5013962;28;20295;-67
2022/11/08 02:45:50;;;;;;;15.10;8.90;;;;;;;;;;5008683;28;20207;-68
2022/11/08 02:48:16;;;;;;;13.03;8.67;;;;;;;;;;5009478;28;20210;-67
2022/11/08 02:50:44;;;;;;;12.20;8.43;;;;;;;;;;5013389;28;20224;-67
2022/11/08 02:53:10;;;;;;;14.60;8.80;;;;;;;;;;5023596;28;20230;-67
2022/11/08 02:55:37;;;;;;;13.33;8.53;;;;;;;;;;5024560;28;20188;-67
2022/11/08 02:58:04;;;;;;;16.03;9.37;;;;;;;;;;5009107;28;20279;-67
2022/11/08 03:00:31;;;;;;;12.37;8.97;;;;;;;;;;5009735;28;20195;-67
2022/11/08 03:02:57;;;;;;;13.50;9.50;;;;;;;;;;5009287;28;20616;-67
2022/11/08 03:05:24;;;;;;;13.03;9.07;;;;;;;;;;5011759;28;20195;-67
2022/11/08 03:07:52;;;;;;;11.70;8.67;;;;;;;;;;5021385;28;20195;-67
2022/11/08 03:10:18;;;;;;;14.13;9.10;;;;;;;;;;4999624;28;20204;-67
2022/11/08 03:12:45;;;;;;;14.10;9.17;;;;;;;;;;5009537;28;20188;-68
2022/11/08 03:15:12;;;;;;;12.40;9.00;;;;;;;;;;5008259;28;20990;-67
2022/11/08 03:17:38;;;;;;;14.43;9.17;;;;;;;;;;5010432;28;20227;-68
2022/11/08 03:20:06;;;;;;;13.20;8.63;;;;;;;;;;5021383;28;20200;-67
2022/11/08 03:22:33;;;;;;;11.47;8.20;;;;;;;;;;5018618;28;20290;-69
2022/11/08 03:24:59;;;;;;;15.97;8.63;;;;;;;;;;5028337;28;20195;-67
2022/11/08 03:27:44;;;;;;;13.98;9.50;;;;;;;;;;5019930;28;20449;-68
2022/11/08 03:30:11;;;;;;;13.20;9.00;;;;;;;;;;5009903;28;20283;-67
2022/11/08 03:32:55;;;;;;;15.40;9.13;;;;;;;;;;5009406;28;20197;-67
2022/11/08 03:35:22;;;;;;;15.60;8.67;;;;;;;;;;5008178;28;20346;-67
2022/11/08 03:38:06;;;;;;;14.10;7.93;;;;;;;;;;5029356;28;20202;-67
2022/11/08 03:40:32;;;;;;;11.40;7.93;;;;;;;;;;5028328;28;20627;-67
2022/11/08 03:43:17;;;;;;;12.10;7.60;;;;;;;;;;5029598;28;20293;-67
2022/11/08 03:45:44;;;;;;;13.37;8.37;;;;;;;;;;5025776;28;20195;-67
2022/11/08 03:48:10;;;;;;;15.23;8.80;;;;;;;;;;5025136;28;20191;-67
2022/11/08 03:50:37;;;;;;;14.67;8.13;;;;;;;;;;5009112;28;20260;-68
2022/11/08 03:53:03;;;;;;;11.33;8.80;;;;;;;;;;5009579;28;20199;-69
2022/11/08 03:55:30;;;;;;;10.87;7.77;;;;;;;;;;5008677;28;20226;-69
2022/11/08 03:57:57;;;;;;;10.87;7.73;;;;;;;;;;5008908;28;20301;-67
2022/11/08 04:00:25;;;;;;;13.00;8.63;;;;;;;;;;5008829;28;20655;-67
2022/11/08 04:02:53;;;;;;;11.83;8.20;;;;;;;;;;5017681;28;20560;-67
2022/11/08 04:05:20;;;;;;;15.40;8.30;;;;;;;;;;5026724;28;20717;-67
2022/11/08 04:07:47;;;;;;;14.33;8.00;;;;;;;;;;5013527;28;20629;-67
2022/11/08 04:10:13;;;;;;;13.00;8.67;;;;;;;;;;5030348;28;20211;-68
2022/11/08 04:15:26;;;;;;;14.30;8.70;;;;;;;;;;5029328;28;20298;-67
2022/11/08 04:23:25;;;;;;;14.70;8.27;;;;;;;;;;5018575;28;20277;-67
2022/11/08 04:25:53;;;;;;;10.60;8.13;;;;;;;;;;5020927;28;20218;-67
2022/11/08 04:28:21;;;;;;;13.93;8.57;;;;;;;;;;5022985;28;20196;-67
2022/11/08 04:30:50;;;;;;;13.07;8.23;;;;;;;;;;5012778;28;20212;-67
2022/11/08 04:33:17;;;;;;;12.03;7.73;;;;;;;;;;5022753;28;20196;-67
2022/11/08 04:35:44;;;;;;;13.57;8.10;;;;;;;;;;5021297;28;20195;-69
2022/11/08 04:38:10;;;;;;;12.23;7.47;;;;;;;;;;5022925;28;20195;-71
2022/11/08 04:40:37;;;;;;;14.23;7.33;;;;;;;;;;5024369;28;20246;-68
2022/11/08 04:43:04;;;;;;;11.93;7.67;;;;;;;;;;5018024;28;20274;-70
2022/11/08 04:45:31;;;;;;;14.37;7.73;;;;;;;;;;5010093;28;21017;-68
2022/11/08 04:47:58;;;;;;;14.47;7.23;;;;;;;;;;5016468;28;20845;-69
2022/11/08 04:50:24;;;;;;;11.03;7.53;;;;;;;;;;5010793;28;20223;-70
2022/11/08 04:52:51;;;;;;;11.40;7.57;;;;;;;;;;5019663;28;20203;-73
2022/11/08 04:55:18;;;;;;;12.30;6.93;;;;;;;;;;5008501;28;20266;-71
2022/11/08 04:57:45;;;;;;;14.20;8.30;;;;;;;;;;5023997;28;20972;-68
2022/11/08 05:00:13;;;;;;;11.00;7.30;;;;;;;;;;5029623;28;20242;-71
2022/11/08 05:02:40;;;;;;;9.60;7.47;;;;;;;;;;5011344;28;20211;-69
2022/11/08 05:05:07;;;;;;;14.83;7.47;;;;;;;;;;5008346;28;20204;-69
2022/11/08 05:07:34;;;;;;;17.10;7.87;;;;;;;;;;5019196;28;20188;-70
2022/11/08 05:10:01;;;;;;;14.30;7.40;;;;;;;;;;5022240;28;20819;-70
2022/11/08 05:12:28;;;;;;;13.20;8.27;;;;;;;;;;5023316;28;20202;-73
2022/11/08 05:14:55;;;;;;;14.23;8.37;;;;;;;;;;5008700;28;20919;-72
2022/11/08 05:17:22;;;;;;;14.33;7.90;;;;;;;;;;5016746;28;20792;-68
2022/11/08 05:25:20;;;;;;;10.53;7.73;;;;;;;;;;5016425;28;20195;-67
2022/11/08 05:27:47;;;;;;;13.47;7.50;;;;;;;;;;5022491;28;20207;-69
2022/11/08 05:30:14;;;;;;;13.40;7.20;;;;;;;;;;5008305;28;20203;-68
2022/11/08 05:32:41;;;;;;;11.17;7.90;;;;;;;;;;5029162;28;20737;-68
2022/11/08 05:35:25;;;;;;;10.07;7.00;;;;;;;;;;5026399;28;21067;-70
2022/11/08 05:37:52;;;;;;;12.13;7.77;;;;;;;;;;5020670;28;20190;-70
2022/11/08 05:40:18;;;;;;;14.27;7.97;;;;;;;;;;5025278;28;20420;-72
2022/11/08 05:42:45;;;;;;;15.00;8.03;;;;;;;;;;5023480;28;21131;-69
2022/11/08 05:45:12;;;;;;;10.23;7.33;;;;;;;;;;4999223;28;20647;-69
2022/11/08 05:47:42;;;;;;;10.53;6.60;;;;;;;;;;5044024;28;20208;-69
2022/11/08 05:50:08;;;;;;;12.70;6.50;;;;;;;;;;5023771;28;20191;-69
2022/11/08 05:52:35;;;;;;;12.00;6.33;;;;;;;;;;5013126;28;20184;-72
2022/11/08 05:55:02;;;;;;;11.23;7.00;;;;;;;;;;5025585;28;20198;-72
2022/11/08 05:57:28;;;;;;;10.03;6.77;;;;;;;;;;5007898;28;20262;-70
2022/11/08 05:59:55;;;;;;;10.67;6.87;;;;;;;;;;5018808;28;20198;-67
2022/11/08 06:02:22;;;;;;;9.00;5.97;;;;;;;;;;5013004;28;20188;-66
2022/11/08 06:04:48;;;;;;;11.10;6.03;;;;;;;;;;5018187;28;20219;-66
2022/11/08 06:07:15;;;;;;;14.00;7.13;;;;;;;;;;5026088;28;20447;-66
2022/11/08 06:09:42;;;;;;;12.47;8.03;;;;;;;;;;5023302;28;20192;-67
2022/11/08 06:12:08;;;;;;;13.33;8.40;;;;;;;;;;5028384;28;20251;-67
2022/11/08 06:14:35;;;;;;;14.93;7.70;;;;;;;;;;5028026;28;20191;-68
2022/11/08 06:17:04;;;;;;;12.60;8.37;;;;;;;;;;5018052;28;20192;-68
2022/11/08 06:19:31;;;;;;;12.60;8.03;;;;;;;;;;5021064;28;20635;-69
2022/11/08 06:21:58;;;;;;;10.90;7.00;;;;;;;;;;5014197;28;20188;-70
2022/11/08 06:24:24;;;;;;;13.70;7.73;;;;;;;;;;5013185;28;20650;-71
2022/11/08 06:26:51;;;;;;;10.27;6.30;;;;;;;;;;5019313;28;20307;-70
2022/11/08 06:29:18;;;;;;;15.20;6.47;;;;;;;;;;5017233;28;20279;-68
2022/11/08 06:31:45;;;;;;;16.13;6.30;;;;;;;;;;5019519;28;20448;-68
2022/11/08 06:34:12;;;;;;;13.33;6.87;;;;;;;;;;5026822;28;20253;-73
2022/11/08 06:36:40;;;;;;;15.50;6.20;;;;;;;;;;4997660;28;20656;-69
2022/11/08 06:39:07;;;;;;;11.73;6.57;;;;;;;;;;5007629;28;20188;-71
2022/11/08 06:41:33;;;;;;;11.27;6.43;;;;;;;;;;4992722;28;20231;-69
2022/11/08 06:44:00;;;;;;;11.27;6.27;;;;;;;;;;5022931;28;20261;-68
2022/11/08 06:46:27;;;;;;;8.30;5.67;;;;;;;;;;5024684;28;20188;-72
2022/11/08 06:48:54;;;;;;;11.73;5.80;;;;;;;;;;5016872;28;20192;-71
2022/11/08 06:51:20;;;;;;;10.10;6.13;;;;;;;;;;5010105;28;20639;-70
2022/11/08 06:53:47;;;;;;;9.13;5.37;;;;;;;;;;5010028;28;20199;-69
2022/11/08 06:56:13;;;;;;;12.37;5.73;;;;;;;;;;5010643;28;20718;-69
2022/11/08 06:58:40;;;;;;;8.70;5.57;;;;;;;;;;5025537;28;20274;-70
2022/11/08 07:01:07;;;;;;;8.93;6.03;;;;;;;;;;5009328;28;20192;-69
2022/11/08 07:03:34;;;;;;;8.27;5.80;;;;;;;;;;5010168;28;20204;-69
2022/11/08 07:06:01;;;;;;;8.57;5.60;;;;;;;;;;5009413;28;20246;-70
2022/11/08 07:08:29;;;;;;;13.17;5.57;;;;;;;;;;5025221;28;20591;-69
2022/11/08 07:10:55;;;;;;;14.17;5.53;;;;;;;;;;5010564;28;20206;-69
2022/11/08 07:13:22;;;;;;;9.07;5.17;;;;;;;;;;5012295;28;20188;-72
2022/11/08 07:15:49;;;;;;;9.30;4.70;;;;;;;;;;5006621;28;20200;-71
2022/11/08 07:18:16;;;;;;;9.30;4.73;;;;;;;;;;5007173;28;20607;-71
2022/11/08 07:20:43;;;;;;;9.30;5.57;;;;;;;;;;5006467;28;20187;-71
2022/11/08 07:23:10;;;;;;;8.83;5.23;;;;;;;;;;5019418;28;20679;-71
2022/11/08 07:25:37;;;;;;;6.17;4.40;;;;;;;;;;5005924;28;20188;-70
2022/11/08 07:28:04;;;;;;;11.73;5.40;;;;;;;;;;5018609;28;20199;-69
2022/11/08 07:30:31;;;;;;;14.03;6.43;;;;;;;;;;5012164;28;20969;-71
2022/11/08 07:32:58;;;;;;;8.90;4.83;;;;;;;;;;5025111;28;20188;-70
2022/11/08 07:35:26;;;;;;;9.47;5.30;;;;;;;;;;5000682;28;20898;-72
2022/11/08 07:37:53;;;;;;;8.30;5.13;;;;;;;;;;5019879;28;20196;-69
2022/11/08 07:40:20;;;;;;;8.57;4.93;;;;;;;;;;5009079;28;20270;-72
2022/11/08 07:42:47;;;;;;;9.53;5.27;;;;;;;;;;5008034;28;20792;-70
2022/11/08 07:45:33;;;;;;;10.00;4.67;;;;;;;;;;5007755;28;20187;-67
2022/11/08 07:48:01;;;;;;;12.87;4.97;;;;;;;;;;5009035;28;20192;-68
2022/11/08 07:50:35;;;;;;;8.63;4.67;;;;;;;;;;5008950;28;20223;-69
2022/11/08 07:53:01;;;;;;;7.60;4.93;;;;;;;;;;5008274;28;20262;-68
2022/11/08 07:55:28;;;;;;;8.97;4.93;;;;;;;;;;5007959;28;20196;-68
2022/11/08 07:58:00;;;;;;;17.70;6.80;;;;;;;;;;5022119;28;20192;-69
2022/11/08 08:00:28;;;;;;;13.63;6.70;;;;;;;;;;5025716;28;20187;-69
2022/11/08 08:03:01;;;;;;;13.60;7.53;;;;;;;;;;5012939;28;20242;-71
2022/11/08 08:05:28;;;;;;;13.13;6.97;;;;;;;;;;5013640;28;20235;-69
2022/11/08 08:07:56;;;;;;;11.43;5.33;;;;;;;;;;5016122;28;20223;-70
2022/11/08 08:10:23;;;;;;;11.03;5.00;;;;;;;;;;5006724;28;20281;-72
2022/11/08 08:12:49;;;;;;;9.43;4.70;;;;;;;;;;5021254;28;20267;-71
2022/11/08 08:15:16;;;;;;;8.23;4.57;;;;;;;;;;4998620;28;20200;-69
2022/11/08 08:17:43;;;;;;;8.53;5.30;;;;;;;;;;5020166;28;20547;-70
2022/11/08 08:20:10;;;;;;;8.87;5.10;;;;;;;;;;5002431;28;20246;-70
2022/11/08 08:22:41;;;;;;;11.20;5.43;;;;;;;;;;5004905;28;20200;-70
2022/11/08 08:25:08;;;;;;;10.13;4.83;;;;;;;;;;5006225;28;20302;-69
2022/11/08 08:27:35;;;;;;;9.47;5.17;;;;;;;;;;5007886;28;20291;-69
2022/11/08 08:30:02;;;;;;;8.10;4.87;;;;;;;;;;5009817;28;20206;-70
2022/11/08 08:32:29;;;;;;;8.13;4.60;;;;;;;;;;5013688;28;20223;-70
2022/11/08 08:34:58;;;;;;;8.17;4.93;;;;;;;;;;5005938;28;20215;-72
2022/11/08 08:37:24;;;;;;;9.47;5.73;;;;;;;;;;5015187;28;20548;-69
2022/11/08 08:39:51;;;;;;;11.57;5.50;;;;;;;;;;5025561;28;20199;-69
2022/11/08 08:42:18;;;;;;;10.27;4.70;;;;;;;;;;5026350;28;20249;-70
2022/11/08 08:44:44;;;;;;;9.93;4.57;;;;;;;;;;5026472;28;20273;-70
2022/11/08 08:47:11;;;;;;;9.23;4.67;;;;;;;;;;5017586;28;20196;-69
2022/11/08 08:49:45;;;;;;;6.70;3.80;;;;;;;;;;5002444;28;20962;-69
2022/11/08 08:52:12;;;;;;;6.00;4.10;;;;;;;;;;5005435;28;20255;-68
2022/11/08 08:54:39;;;;;;;7.33;4.30;;;;;;;;;;5007957;28;20259;-71
2022/11/08 08:57:06;;;;;;;10.23;3.97;;;;;;;;;;5028287;28;20233;-69
2022/11/08 08:59:32;;;;;;;7.43;4.20;;;;;;;;;;5009042;28;20212;-69
2022/11/08 09:02:19;;;;;;;8.40;3.43;;;;;;;;;;5011592;28;20639;-71
2022/11/08 09:04:46;;;;;;;9.30;4.17;;;;;;;;;;5028748;28;20219;-69
2022/11/08 09:07:13;;;;;;;6.60;3.60;;;;;;;;;;5027383;28;20198;-71
2022/11/08 09:09:39;;;;;;;8.40;3.60;;;;;;;;;;5028926;28;20270;-71
2022/11/08 09:12:07;;;;;;;9.80;4.30;;;;;;;;;;5020626;28;20208;-71
2022/11/08 09:14:39;;;;;;;7.60;4.00;;;;;;;;;;5028959;28;20190;-71
2022/11/08 09:17:06;;;;;;;10.37;4.27;;;;;;;;;;5029044;28;20196;-71
2022/11/08 09:19:33;;;;;;;6.80;3.90;;;;;;;;;;5028802;28;20211;-71
2022/11/08 09:22:00;;;;;;;8.17;4.03;;;;;;;;;;5017431;28;20220;-68
2022/11/08 09:24:27;;;;;;;9.33;3.70;;;;;;;;;;5009274;28;20211;-69
2022/11/08 09:27:11;;;;;;;9.30;4.10;;;;;;;;;;5018277;28;20184;-71
2022/11/08 09:29:39;;;;;;;10.13;4.13;;;;;;;;;;5012303;28;20671;-69
2022/11/08 09:32:06;;;;;;;8.73;3.93;;;;;;;;;;5021021;28;20725;-70
2022/11/08 09:34:33;;;;;;;8.63;4.00;;;;;;;;;;5017304;28;20192;-70
2022/11/08 09:37:00;;;;;;;7.27;3.80;;;;;;;;;;5011187;28;20721;-71
2022/11/08 09:39:27;;;;;;;7.13;3.37;;;;;;;;;;5018432;28;20259;-72
2022/11/08 09:42:09;;;;;;;8.17;3.50;;;;;;;;;;5020045;28;20652;-68
2022/11/08 09:44:54;;;;;;;7.97;3.73;;;;;;;;;;5009456;28;20242;-67
2022/11/08 09:47:24;;;;;;;7.00;3.33;;;;;;;;;;5014675;28;20211;-69
2022/11/08 09:50:06;;;;;;;9.10;3.30;;;;;;;;;;5007602;28;20188;-71
2022/11/08 09:52:33;;;;;;;6.70;3.40;;;;;;;;;;5013905;28;20226;-70
2022/11/08 09:55:05;;;;;;;6.43;3.30;;;;;;;;;;5028860;28;20176;-70
2022/11/08 09:57:51;;;;;;;8.10;3.90;;;;;;;;;;5028684;28;20199;-70
2022/11/08 10:00:18;;;;;;;6.20;3.40;;;;;;;;;;5020232;28;20188;-71
2022/11/08 10:02:45;;;;;;;6.70;3.53;;;;;;;;;;5008165;28;20266;-70
2022/11/08 10:05:14;;;;;;;6.30;3.23;;;;;;;;;;5008533;28;20216;-67
2022/11/08 10:07:49;;;;;;;9.03;3.50;;;;;;;;;;5022296;28;21024;-73
2022/11/08 10:10:27;;;;;;;8.37;3.53;;;;;;;;;;5001382;28;20248;-72
2022/11/08 10:12:55;;;;;;;8.10;3.50;;;;;;;;;;5008194;28;20199;-71
2022/11/08 10:15:33;;;;;;;7.57;3.43;;;;;;;;;;5008558;28;20208;-75
2022/11/08 10:18:03;;;;;;;10.63;3.60;;;;;;;;;;5021626;28;20188;-74
2022/11/08 10:20:49;;;;;;;8.33;3.70;;;;;;;;;;5028371;28;20187;-72
2022/11/08 10:23:18;;;;;;;8.30;3.27;;;;;;;;;;5027810;28;20219;-68
2022/11/08 10:25:58;;;;;;;7.77;3.40;;;;;;;;;;5025097;28;20328;-74
2022/11/08 10:28:35;;;;;;;8.70;3.40;;;;;;;;;;5018483;28;20281;-70
2022/11/08 10:31:02;;;;;;;8.17;3.33;;;;;;;;;;5006283;28;20296;-71
2022/11/08 10:33:43;;;;;;;8.83;3.70;;;;;;;;;;5022170;28;20222;-70
2022/11/08 10:36:12;;;;;;;10.87;4.00;;;;;;;;;;5024971;28;20826;-70
2022/11/08 10:38:43;;;;;;;12.90;4.30;;;;;;;;;;5017776;28;20189;-70
2022/11/08 10:41:25;;;;;;;9.17;3.90;;;;;;;;;;5007807;28;20860;-74
2022/11/08 10:43:53;;;;;;;8.33;4.33;;;;;;;;;;5023029;28;20206;-71
2022/11/08 10:46:36;;;;;;;8.40;3.70;;;;;;;;;;5026500;28;20188;-69
2022/11/08 10:49:18;;;;;;;6.53;3.37;;;;;;;;;;5027757;28;20203;-68
2022/11/08 10:51:48;;;;;;;6.37;3.10;;;;;;;;;;5027162;28;20231;-72
2022/11/08 10:54:34;;;;;;;5.77;2.63;;;;;;;;;;5022087;28;20184;-69
2022/11/08 10:57:00;;;;;;;6.63;3.33;;;;;;;;;;5013693;28;20188;-68
2022/11/08 10:59:45;;;;;;;6.37;3.23;;;;;;;;;;5021579;28;20176;-66
2022/11/08 11:02:21;;;;;;;10.23;3.57;;;;;;;;;;5009509;28;20567;-67
2022/11/08 11:04:49;;;;;;;5.43;3.07;;;;;;;;;;5025805;28;20253;-67
2022/11/08 11:07:28;;;;;;;7.20;3.50;;;;;;;;;;5029371;28;20186;-66
2022/11/08 11:09:55;;;;;;;10.07;3.20;;;;;;;;;;5008111;28;20265;-67
2022/11/08 11:12:22;;;;;;;7.87;3.27;;;;;;;;;;5016088;28;20722;-68
2022/11/08 11:14:54;;;;;;;8.30;3.23;;;;;;;;;;5007466;28;20192;-68
2022/11/08 11:17:22;;;;;;;5.53;2.93;;;;;;;;;;5005965;28;20989;-69
2022/11/08 11:19:54;;;;;;;9.27;3.73;;;;;;;;;;5007566;28;20173;-67
2022/11/08 11:22:23;;;;;;;11.00;3.33;;;;;;;;;;5008711;28;20195;-69
2022/11/08 11:24:50;;;;;;;7.17;3.47;;;;;;;;;;5016289;28;20848;-67
2022/11/08 11:27:22;;;;;;;7.63;2.93;;;;;;;;;;5028903;28;20263;-69
2022/11/08 11:29:48;;;;;;;10.57;3.97;;;;;;;;;;5007398;28;20188;-68
2022/11/08 11:32:22;;;;;;;6.60;3.70;;;;;;;;;;5015503;28;20207;-68
2022/11/08 11:34:50;;;;;;;10.70;3.63;;;;;;;;;;5021971;28;20196;-67
2022/11/08 11:37:18;;;;;;;7.93;3.30;;;;;;;;;;5008712;28;20739;-68
2022/11/08 11:39:48;;;;;;;6.33;3.00;;;;;;;;;;5025307;28;20192;-68
2022/11/08 11:42:24;;;;;;;6.20;2.57;;;;;;;;;;5007202;28;20202;-67
2022/11/08 11:45:21;;;;;;;9.40;3.77;;;;;;;;;;5007173;28;20773;-68
2022/11/08 11:47:49;;;;;;;12.10;3.97;;;;;;;;;;5018618;28;20183;-66
2022/11/08 11:50:23;;;;;;;7.37;3.50;;;;;;;;;;5019580;28;20223;-69
2022/11/08 11:52:50;;;;;;;8.43;3.43;;;;;;;;;;5020927;28;20179;-67
2022/11/08 11:55:17;;;;;;;8.30;3.60;;;;;;;;;;5025932;28;20257;-69
2022/11/08 11:57:44;;;;;;;8.70;3.73;;;;;;;;;;5012490;28;20215;-69
2022/11/08 12:00:11;;;;;;;9.30;3.50;;;;;;;;;;5020709;28;20648;-67
2022/11/08 12:02:47;;;;;;;5.93;2.97;;;;;;;;;;5009252;28;20250;-68
2022/11/08 12:05:23;;;;;;;7.93;3.07;;;;;;;;;;5006796;28;20219;-68
2022/11/08 12:07:50;;;;;;;7.53;2.93;;;;;;;;;;5005310;28;20196;-68
2022/11/08 12:10:35;;;;;;;8.23;3.30;;;;;;;;;;5013894;28;20188;-69
2022/11/08 12:13:06;;;;;;;10.03;3.53;;;;;;;;;;5038155;28;20198;-68
2022/11/08 12:15:32;;;;;;;6.57;2.93;;;;;;;;;;5046464;28;20191;-68
2022/11/08 12:17:59;;;;;;;7.17;2.80;;;;;;;;;;5006264;28;20200;-68
2022/11/08 12:20:29;;;;;;;8.67;3.37;;;;;;;;;;5010060;28;20192;-71
2022/11/08 12:23:06;;;;;;;6.53;2.90;;;;;;;;;;5034830;28;20222;-68
2022/11/08 12:25:52;;;;;;;8.00;2.93;;;;;;;;;;5047912;28;20218;-68
2022/11/08 12:28:26;;;;;;;10.80;3.30;;;;;;;;;;5009466;28;20254;-69
2022/11/08 12:30:55;;;;;;;7.43;3.03;;;;;;;;;;5030263;28;20195;-68
2022/11/08 12:33:25;;;;;;;8.27;3.10;;;;;;;;;;4995678;28;20250;-68
2022/11/08 12:35:58;;;;;;;8.47;3.00;;;;;;;;;;5013526;28;20193;-68
2022/11/08 12:38:40;;;;;;;6.47;2.70;;;;;;;;;;5017887;28;20200;-68
2022/11/08 12:41:10;;;;;;;9.03;3.17;;;;;;;;;;5013160;28;20180;-68
2022/11/08 12:43:40;;;;;;;9.53;3.47;;;;;;;;;;5011902;28;20204;-68
2022/11/08 12:46:16;;;;;;;7.40;2.97;;;;;;;;;;5013081;28;20219;-68
2022/11/08 12:49:02;;;;;;;8.43;3.53;;;;;;;;;;4995848;28;20206;-68
2022/11/08 12:51:35;;;;;;;5.10;3.00;;;;;;;;;;5021026;28;20301;-68
2022/11/08 12:54:09;;;;;;;7.57;3.13;;;;;;;;;;5032888;28;20783;-68
2022/11/08 12:56:43;;;;;;;7.13;3.20;;;;;;;;;;5031532;28;20194;-67
2022/11/08 12:59:21;;;;;;;6.80;3.10;;;;;;;;;;5032487;28;20187;-68
2022/11/08 13:01:47;;;;;;;5.30;3.30;;;;;;;;;;5031532;28;20190;-68
2022/11/08 13:04:32;;;;;;;5.43;3.03;;;;;;;;;;5031303;28;20179;-68
2022/11/08 13:07:18;;;;;;;11.17;3.40;;;;;;;;;;5031642;28;20197;-69
2022/11/08 13:09:46;;;;;;;6.53;3.30;;;;;;;;;;5012447;28;20196;-68
2022/11/08 13:12:13;;;;;;;9.07;3.63;;;;;;;;;;5026685;28;20238;-68
2022/11/08 13:14:40;;;;;;;8.57;3.40;;;;;;;;;;5011883;28;20290;-68
2022/11/08 13:17:21;;;;;;;7.53;3.20;;;;;;;;;;5012484;28;20188;-68
2022/11/08 13:19:51;;;;;;;8.30;3.50;;;;;;;;;;5027506;28;20214;-68
2022/11/08 13:22:30;;;;;;;6.57;3.33;;;;;;;;;;5011140;28;20196;-68
2022/11/08 13:25:00;;;;;;;6.53;3.47;;;;;;;;;;5012298;28;20675;-68
2022/11/08 13:27:33;;;;;;;10.07;3.37;;;;;;;;;;5027470;28;20195;-68
2022/11/08 13:30:15;;;;;;;8.17;3.30;;;;;;;;;;5011883;28;20196;-68
2022/11/08 13:32:41;;;;;;;7.30;3.70;;;;;;;;;;5011585;28;20204;-68
2022/11/08 13:35:29;;;;;;;7.00;3.20;;;;;;;;;;5029675;28;20238;-69
2022/11/08 13:38:14;;;;;;;7.67;3.37;;;;;;;;;;5030428;28;20198;-68
2022/11/08 13:40:48;;;;;;;8.40;3.63;;;;;;;;;;5021503;28;20204;-68
2022/11/08 13:43:30;;;;;;;8.23;3.60;;;;;;;;;;5030786;28;20222;-68
2022/11/08 13:46:16;;;;;;;7.90;3.77;;;;;;;;;;5014255;28;20255;-67
2022/11/08 13:48:43;;;;;;;9.23;3.47;;;;;;;;;;5022722;28;20196;-69
2022/11/08 13:51:25;;;;;;;10.43;3.60;;;;;;;;;;5014024;28;20201;-69
2022/11/08 13:53:53;;;;;;;9.20;4.00;;;;;;;;;;5026356;28;20238;-67
2022/11/08 13:56:39;;;;;;;9.70;3.90;;;;;;;;;;5025666;28;20192;-67
2022/11/08 13:59:25;;;;;;;6.53;3.40;;;;;;;;;;5031414;28;20192;-68
2022/11/08 14:01:55;;;;;;;9.27;4.00;;;;;;;;;;5029840;28;20207;-68
2022/11/08 14:04:25;;;;;;;7.90;3.57;;;;;;;;;;5033216;28;20196;-68
2022/11/08 14:07:01;;;;;;;10.17;3.60;;;;;;;;;;5016864;28;20215;-68
2022/11/08 14:09:47;;;;;;;6.40;4.17;;;;;;;;;;5020204;28;20711;-68
2022/11/08 14:12:33;;;;;;;9.57;4.00;;;;;;;;;;5010704;28;20725;-68
2022/11/08 14:15:06;;;;;;;9.40;3.77;;;;;;;;;;5032548;28;20186;-68
2022/11/08 14:17:35;;;;;;;8.20;3.80;;;;;;;;;;5028406;28;20224;-68
2022/11/08 14:20:17;;;;;;;8.17;3.30;;;;;;;;;;5020571;28;20662;-71
2022/11/08 14:22:44;;;;;;;7.87;3.77;;;;;;;;;;5022191;28;20195;-70
2022/11/08 14:25:29;;;;;;;7.60;3.40;;;;;;;;;;5007481;28;20575;-71
2022/11/08 14:27:55;;;;;;;8.93;3.60;;;;;;;;;;5033247;28;20198;-70
2022/11/08 14:30:22;;;;;;;8.27;3.67;;;;;;;;;;5032100;28;20269;-71
2022/11/08 14:33:24;;;;;;;6.97;3.57;;;;;;;;;;5032395;28;20662;-71
2022/11/08 14:36:12;;;;;;;9.87;4.00;;;;;;;;;;5017322;28;20184;-71
2022/11/08 14:38:49;;;;;;;10.70;4.30;;;;;;;;;;5030785;28;20249;-70
2022/11/08 14:41:18;;;;;;;10.47;3.33;;;;;;;;;;5027756;28;20750;-72
2022/11/08 14:43:45;;;;;;;7.03;4.10;;;;;;;;;;5028106;28;20199;-69
2022/11/08 14:46:21;;;;;;;6.93;4.03;;;;;;;;;;5013031;28;20587;-68
2022/11/08 14:48:53;;;;;;;7.30;3.77;;;;;;;;;;5020556;28;20268;-69
2022/11/08 14:51:20;;;;;;;8.27;3.30;;;;;;;;;;5015025;28;20195;-70
2022/11/08 14:53:50;;;;;;;7.17;3.87;;;;;;;;;;5017058;28;20756;-69
2022/11/08 14:56:22;;;;;;;10.10;4.10;;;;;;;;;;4993142;28;20643;-68
2022/11/08 14:58:50;;;;;;;9.20;4.03;;;;;;;;;;5009457;28;20291;-69
2022/11/08 15:01:20;;;;;;;9.20;3.80;;;;;;;;;;5001398;28;20192;-69
2022/11/08 15:04:00;;;;;;;6.43;3.70;;;;;;;;;;5012031;28;20217;-69
2022/11/08 15:06:40;;;;;;;8.33;3.83;;;;;;;;;;5018636;28;20216;-69
2022/11/08 15:09:07;;;;;;;10.90;3.90;;;;;;;;;;5021835;28;20222;-70
2022/11/08 15:11:35;;;;;;;8.40;4.10;;;;;;;;;;5002297;28;20631;-71
2022/11/08 15:14:06;;;;;;;11.17;4.50;;;;;;;;;;5008516;28;20660;-69
2022/11/08 15:16:39;;;;;;;8.67;4.20;;;;;;;;;;5016420;28;20195;-71